createdAt,value
2016-06-02T17:27:09.025Z,1032
2016-06-02T17:27:18.993Z,1032
2016-06-02T17:27:28.996Z,1036
2016-06-02T17:27:38.996Z,1060
2016-06-02T17:27:48.996Z,1060
2016-06-02T17:27:59.028Z,1060
2016-06-02T17:28:08.981Z,1060
2016-06-02T17:28:18.965Z,1056
2016-06-02T17:28:28.984Z,1056
2016-06-02T17:28:38.968Z,1056
2016-06-02T17:28:48.953Z,1052
2016-06-02T17:28:58.953Z,1056
2016-06-02T17:29:08.953Z,1052
2016-06-02T17:29:18.937Z,1052
2016-06-02T17:29:28.940Z,1052
2016-06-02T17:29:38.940Z,1056
2016-06-02T17:29:48.940Z,1056
2016-06-02T17:29:58.924Z,1056
2016-06-02T17:30:08.924Z,1060
2016-06-02T17:30:18.924Z,1060
2016-06-02T17:30:28.754Z,1064
2016-06-02T17:30:38.911Z,1064
2016-06-02T17:30:48.895Z,1064
2016-06-02T17:30:58.739Z,1068
2016-06-02T17:31:08.879Z,1072
2016-06-02T17:31:18.895Z,1072
2016-06-02T17:31:28.726Z,1076
2016-06-02T17:31:38.882Z,1076
2016-06-02T17:31:48.867Z,1080
2016-06-02T17:31:58.867Z,1084
2016-06-02T17:32:08.851Z,1084
2016-06-02T17:32:18.851Z,1088
2016-06-02T17:32:28.854Z,1092
2016-06-02T17:32:38.839Z,1092
2016-06-02T17:32:48.839Z,1096
2016-06-02T17:32:58.823Z,1104
2016-06-02T17:33:08.854Z,1104
2016-06-02T17:33:18.839Z,1108
2016-06-02T17:33:28.810Z,1112
2016-06-02T17:33:38.670Z,1116
2016-06-02T17:33:48.810Z,1116
2016-06-02T17:33:58.795Z,1124
2016-06-02T17:34:08.795Z,1124
2016-06-02T17:34:18.810Z,1128
2016-06-02T17:34:28.781Z,1132
2016-06-02T17:34:38.797Z,1136
2016-06-02T17:34:48.781Z,1136
2016-06-02T17:34:58.765Z,1140
2016-06-02T17:35:08.781Z,1140
2016-06-02T17:35:18.781Z,1144
2016-06-02T17:35:28.768Z,1148
2016-06-02T17:35:38.768Z,1148
2016-06-02T17:35:48.753Z,1148
2016-06-02T17:35:58.597Z,1152
2016-06-02T17:36:08.597Z,1156
2016-06-02T17:36:18.737Z,1160
2016-06-02T17:36:28.739Z,1160
2016-06-02T17:36:38.739Z,1164
2016-06-02T17:36:48.724Z,1164
2016-06-02T17:36:58.552Z,1168
2016-06-02T17:37:08.567Z,1172
2016-06-02T17:37:18.708Z,1176
2016-06-02T17:37:28.711Z,1176
2016-06-02T17:37:38.555Z,1180
2016-06-02T17:37:48.695Z,1184
2016-06-02T17:37:58.695Z,1188
2016-06-02T17:38:08.680Z,1188
2016-06-02T17:38:18.680Z,1196
2016-06-02T17:38:28.683Z,1200
2016-06-02T17:38:38.683Z,1204
2016-06-02T17:38:48.667Z,1208
2016-06-02T17:38:58.667Z,1212
2016-06-02T17:39:08.651Z,1220
2016-06-02T17:39:18.636Z,1224
2016-06-02T17:39:28.654Z,1228
2016-06-02T17:39:39.967Z,1236
2016-06-02T17:39:50.014Z,1236
2016-06-02T17:39:59.061Z,1244
2016-06-02T17:40:09.748Z,1252
2016-06-02T17:40:19.733Z,1256
2016-06-02T17:40:29.406Z,1260
2016-06-02T17:40:38.781Z,1260
2016-06-02T17:40:50.094Z,1272
2016-06-02T17:41:00.547Z,1280
2016-06-02T17:41:08.547Z,1288
2016-06-02T17:41:18.594Z,1292
2016-06-02T17:41:28.581Z,1296
2016-06-02T17:41:38.581Z,1300
2016-06-02T17:41:48.597Z,1300
2016-06-02T17:41:58.581Z,1308
2016-06-02T17:42:08.706Z,1312
2016-06-02T17:42:18.566Z,1316
2016-06-02T17:42:28.569Z,1316
2016-06-02T17:42:38.553Z,1316
2016-06-02T17:42:48.412Z,1312
2016-06-02T17:42:58.537Z,1312
2016-06-02T17:43:08.537Z,1312
2016-06-02T17:43:18.537Z,1308
2016-06-02T17:43:28.381Z,1304
2016-06-02T17:43:38.539Z,1304
2016-06-02T17:43:48.524Z,1300
2016-06-02T17:43:58.508Z,1300
2016-06-02T17:44:08.524Z,1300
2016-06-02T17:44:18.493Z,1296
2016-06-02T17:44:28.493Z,1296
2016-06-02T17:44:38.511Z,1296
2016-06-02T17:44:49.902Z,1292
2016-06-02T17:45:00.667Z,1292
2016-06-02T17:45:10.011Z,1292
2016-06-02T17:45:20.277Z,1292
2016-06-02T17:45:28.464Z,1288
2016-06-02T17:45:38.467Z,1288
2016-06-02T17:45:48.483Z,1288
2016-06-02T17:45:58.452Z,1288
2016-06-02T17:46:08.452Z,1284
2016-06-02T17:46:18.452Z,1292
2016-06-02T17:46:28.280Z,1296
2016-06-02T17:46:38.438Z,1296
2016-06-02T17:46:48.438Z,1304
2016-06-02T17:46:58.422Z,1300
2016-06-02T17:47:08.422Z,1308
2016-06-02T17:47:18.422Z,1316
2016-06-02T17:47:28.422Z,1316
2016-06-02T17:47:38.425Z,1320
2016-06-02T17:47:48.410Z,1324
2016-06-02T17:47:58.394Z,1328
2016-06-02T17:48:08.410Z,1328
2016-06-02T17:48:18.394Z,1332
2016-06-02T17:48:28.379Z,1332
2016-06-02T17:48:38.396Z,1332
2016-06-02T17:48:48.381Z,1332
2016-06-02T17:48:58.365Z,1332
2016-06-02T17:49:08.381Z,1324
2016-06-02T17:49:18.365Z,1324
2016-06-02T17:49:28.365Z,1320
2016-06-02T17:49:38.369Z,1312
2016-06-02T17:49:48.338Z,1312
2016-06-02T17:49:58.353Z,1304
2016-06-02T17:50:08.353Z,1304
2016-06-02T17:50:18.338Z,1296
2016-06-02T17:50:28.338Z,1292
2016-06-02T17:50:38.340Z,1288
2016-06-02T17:50:48.324Z,1292
2016-06-02T17:50:58.324Z,1284
2016-06-02T17:51:08.308Z,1276
2016-06-02T17:51:18.308Z,1272
2016-06-02T17:51:28.308Z,1268
2016-06-02T17:51:38.310Z,1264
2016-06-02T17:51:48.295Z,1256
2016-06-02T17:51:58.295Z,1252
2016-06-02T17:52:08.279Z,1248
2016-06-02T17:52:18.279Z,1244
2016-06-02T17:52:28.279Z,1236
2016-06-02T17:52:38.268Z,1236
2016-06-02T17:52:48.268Z,1228
2016-06-02T17:52:58.268Z,1228
2016-06-02T17:53:08.252Z,1224
2016-06-02T17:53:18.236Z,1224
2016-06-02T17:53:28.252Z,1224
2016-06-02T17:53:38.238Z,1220
2016-06-02T17:53:48.238Z,1224
2016-06-02T17:53:58.238Z,1228
2016-06-02T17:54:08.238Z,1232
2016-06-02T17:54:18.238Z,1228
2016-06-02T17:54:28.051Z,1232
2016-06-02T17:54:39.366Z,1232
2016-06-02T17:54:49.069Z,1228
2016-06-02T17:54:58.726Z,1232
2016-06-02T17:55:08.226Z,1232
2016-06-02T17:55:18.632Z,1228
2016-06-02T17:55:28.616Z,1228
2016-06-02T17:55:38.853Z,1228
2016-06-02T17:55:48.040Z,1228
2016-06-02T17:55:58.884Z,1224
2016-06-02T17:56:08.181Z,1224
2016-06-02T17:56:18.165Z,1220
2016-06-02T17:56:28.150Z,1220
2016-06-02T17:56:38.153Z,1212
2016-06-02T17:56:48.153Z,1204
2016-06-02T17:56:58.153Z,1200
2016-06-02T17:57:08.153Z,1200
2016-06-02T17:57:18.137Z,1196
2016-06-02T17:57:28.137Z,1196
2016-06-02T17:57:38.156Z,1192
2016-06-02T17:57:48.124Z,1192
2016-06-02T17:57:58.140Z,1184
2016-06-02T17:58:08.140Z,1180
2016-06-02T17:58:18.109Z,1176
2016-06-02T17:58:28.109Z,1176
2016-06-02T17:58:38.111Z,1176
2016-06-02T17:58:48.095Z,1176
2016-06-02T17:58:58.111Z,1168
2016-06-02T17:59:08.095Z,1168
2016-06-02T17:59:18.095Z,1168
2016-06-02T17:59:28.095Z,1160
2016-06-02T17:59:38.082Z,1156
2016-06-02T17:59:47.926Z,1152
2016-06-02T17:59:58.082Z,1148
2016-06-02T18:00:08.067Z,1148
2016-06-02T18:00:18.051Z,1144
2016-06-02T18:00:28.067Z,1144
2016-06-02T18:00:38.054Z,1148
2016-06-02T18:00:48.039Z,1148
2016-06-02T18:00:58.039Z,1144
2016-06-02T18:01:08.023Z,1140
2016-06-02T18:01:18.039Z,1140
2016-06-02T18:01:28.023Z,1136
2016-06-02T18:01:38.010Z,1136
2016-06-02T18:01:48.010Z,1136
2016-06-02T18:01:57.995Z,1132
2016-06-02T18:02:07.838Z,1132
2016-06-02T18:02:17.995Z,1128
2016-06-02T18:02:27.838Z,1128
2016-06-02T18:02:37.840Z,1132
2016-06-02T18:02:47.997Z,1136
2016-06-02T18:02:57.981Z,1144
2016-06-02T18:03:07.965Z,1148
2016-06-02T18:03:17.965Z,1156
2016-06-02T18:03:27.950Z,1176
2016-06-02T18:03:37.968Z,1180
2016-06-02T18:03:47.953Z,1192
2016-06-02T18:03:57.937Z,1200
2016-06-02T18:04:07.937Z,1196
2016-06-02T18:04:17.937Z,1200
2016-06-02T18:04:27.922Z,1208
2016-06-02T18:04:37.955Z,1212
2016-06-02T18:04:47.924Z,1224
2016-06-02T18:04:57.924Z,1220
2016-06-02T18:05:07.924Z,1224
2016-06-02T18:05:17.908Z,1224
2016-06-02T18:05:27.908Z,1224
2016-06-02T18:05:37.927Z,1220
2016-06-02T18:05:47.895Z,1212
2016-06-02T18:05:57.895Z,1204
2016-06-02T18:06:07.895Z,1188
2016-06-02T18:06:17.895Z,1180
2016-06-02T18:06:27.895Z,1168
2016-06-02T18:06:37.898Z,1168
2016-06-02T18:06:47.883Z,1172
2016-06-02T18:06:57.867Z,1172
2016-06-02T18:07:07.867Z,1192
2016-06-02T18:07:17.851Z,1196
2016-06-02T18:07:27.711Z,1200
2016-06-02T18:07:37.854Z,1204
2016-06-02T18:07:47.854Z,1204
2016-06-02T18:07:57.854Z,1184
2016-06-02T18:08:07.839Z,1160
2016-06-02T18:08:17.823Z,1140
2016-06-02T18:08:27.839Z,1128
2016-06-02T18:08:37.826Z,1112
2016-06-02T18:08:47.811Z,1108
2016-06-02T18:08:57.826Z,1108
2016-06-02T18:09:07.811Z,1116
2016-06-02T18:09:17.795Z,1128
2016-06-02T18:09:27.795Z,1132
2016-06-02T18:09:37.672Z,1132
2016-06-02T18:09:47.969Z,1132
2016-06-02T18:09:57.813Z,1140
2016-06-02T18:10:08.141Z,1136
2016-06-02T18:10:18.016Z,1144
2016-06-02T18:10:28.109Z,1140
2016-06-02T18:10:38.800Z,1140
2016-06-02T18:10:47.862Z,1132
2016-06-02T18:10:58.847Z,1112
2016-06-02T18:11:07.769Z,1096
2016-06-02T18:11:17.753Z,1076
2016-06-02T18:11:27.753Z,1064
2016-06-02T18:11:37.755Z,1056
2016-06-02T18:11:47.739Z,1048
2016-06-02T18:11:57.755Z,1048
2016-06-02T18:12:07.724Z,1048
2016-06-02T18:12:17.724Z,1056
2016-06-02T18:12:27.724Z,1052
2016-06-02T18:12:37.711Z,1040
2016-06-02T18:12:47.727Z,1040
2016-06-02T18:12:57.696Z,1028
2016-06-02T18:13:07.696Z,1020
2016-06-02T18:13:17.696Z,1016
2016-06-02T18:13:27.696Z,1004
2016-06-02T18:13:37.683Z,992
2016-06-02T18:13:47.683Z,976
2016-06-02T18:13:57.683Z,972
2016-06-02T18:14:07.667Z,968
2016-06-02T18:14:17.652Z,964
2016-06-02T18:14:27.652Z,964
2016-06-02T18:14:37.669Z,960
2016-06-02T18:14:47.654Z,956
2016-06-02T18:14:57.638Z,956
2016-06-02T18:15:07.638Z,956
2016-06-02T18:15:17.638Z,956
2016-06-02T18:15:27.638Z,952
2016-06-02T18:15:37.642Z,960
2016-06-02T18:15:47.611Z,964
2016-06-02T18:15:57.611Z,964
2016-06-02T18:16:07.611Z,968
2016-06-02T18:16:17.611Z,964
2016-06-02T18:16:27.611Z,964
2016-06-02T18:16:37.613Z,964
2016-06-02T18:16:47.582Z,968
2016-06-02T18:16:57.597Z,960
2016-06-02T18:17:07.582Z,960
2016-06-02T18:17:17.582Z,952
2016-06-02T18:17:27.582Z,948
2016-06-02T18:17:37.568Z,940
2016-06-02T18:17:47.552Z,932
2016-06-02T18:17:57.568Z,924
2016-06-02T18:18:07.552Z,924
2016-06-02T18:18:17.552Z,924
2016-06-02T18:18:27.552Z,924
2016-06-02T18:18:37.540Z,928
2016-06-02T18:18:47.540Z,924
2016-06-02T18:18:57.540Z,924
2016-06-02T18:19:07.524Z,924
2016-06-02T18:19:17.524Z,916
2016-06-02T18:19:27.524Z,916
2016-06-02T18:19:37.527Z,912
2016-06-02T18:19:47.511Z,908
2016-06-02T18:19:57.511Z,912
2016-06-02T18:20:07.496Z,912
2016-06-02T18:20:17.511Z,908
2016-06-02T18:20:27.340Z,908
2016-06-02T18:20:37.499Z,908
2016-06-02T18:20:47.499Z,904
2016-06-02T18:20:57.483Z,900
2016-06-02T18:21:07.483Z,900
2016-06-02T18:21:17.483Z,904
2016-06-02T18:21:27.468Z,900
2016-06-02T18:21:37.454Z,900
2016-06-02T18:21:47.454Z,896
2016-06-02T18:21:57.438Z,892
2016-06-02T18:22:07.438Z,888
2016-06-02T18:22:17.454Z,884
2016-06-02T18:22:27.423Z,884
2016-06-02T18:22:37.441Z,888
2016-06-02T18:22:47.426Z,888
2016-06-02T18:22:57.426Z,884
2016-06-02T18:23:07.426Z,880
2016-06-02T18:23:17.410Z,880
2016-06-02T18:23:27.410Z,880
2016-06-02T18:23:37.413Z,880
2016-06-02T18:23:47.413Z,872
2016-06-02T18:23:57.382Z,872
2016-06-02T18:24:07.382Z,872
2016-06-02T18:24:17.366Z,872
2016-06-02T18:24:27.382Z,868
2016-06-02T18:24:37.243Z,872
2016-06-02T18:24:48.431Z,868
2016-06-02T18:24:58.509Z,864
2016-06-02T18:25:08.884Z,864
2016-06-02T18:25:17.384Z,864
2016-06-02T18:25:27.759Z,860
2016-06-02T18:25:37.403Z,860
2016-06-02T18:25:48.325Z,856
2016-06-02T18:25:57.622Z,856
2016-06-02T18:26:07.341Z,856
2016-06-02T18:26:17.325Z,852
2016-06-02T18:26:27.310Z,852
2016-06-02T18:26:37.326Z,844
2016-06-02T18:26:47.326Z,844
2016-06-02T18:26:57.311Z,844
2016-06-02T18:27:07.311Z,844
2016-06-02T18:27:17.295Z,844
2016-06-02T18:27:27.295Z,844
2016-06-02T18:27:37.282Z,840
2016-06-02T18:27:47.314Z,836
2016-06-02T18:27:57.282Z,836
2016-06-02T18:28:07.282Z,836
2016-06-02T18:28:17.282Z,836
2016-06-02T18:28:27.267Z,836
2016-06-02T18:28:37.270Z,836
2016-06-02T18:28:47.254Z,832
2016-06-02T18:28:57.239Z,832
2016-06-02T18:29:07.270Z,832
2016-06-02T18:29:17.239Z,836
2016-06-02T18:29:27.239Z,844
2016-06-02T18:29:37.242Z,840
2016-06-02T18:29:47.226Z,836
2016-06-02T18:29:57.210Z,832
2016-06-02T18:30:07.242Z,824
2016-06-02T18:30:17.210Z,816
2016-06-02T18:30:27.210Z,812
2016-06-02T18:30:37.212Z,812
2016-06-02T18:30:47.197Z,804
2016-06-02T18:30:57.197Z,800
2016-06-02T18:31:07.197Z,800
2016-06-02T18:31:17.040Z,796
2016-06-02T18:31:27.181Z,800
2016-06-02T18:31:37.185Z,792
2016-06-02T18:31:47.169Z,792
2016-06-02T18:31:57.169Z,784
2016-06-02T18:32:07.169Z,780
2016-06-02T18:32:17.154Z,780
2016-06-02T18:32:27.154Z,776
2016-06-02T18:32:37.140Z,772
2016-06-02T18:32:47.171Z,772
2016-06-02T18:32:57.140Z,772
2016-06-02T18:33:07.156Z,768
2016-06-02T18:33:17.125Z,764
2016-06-02T18:33:27.140Z,764
2016-06-02T18:33:37.111Z,760
2016-06-02T18:33:47.127Z,760
2016-06-02T18:33:57.111Z,756
2016-06-02T18:34:06.955Z,752
2016-06-02T18:34:17.111Z,748
2016-06-02T18:34:27.095Z,748
2016-06-02T18:34:37.098Z,744
2016-06-02T18:34:47.083Z,744
2016-06-02T18:34:57.083Z,736
2016-06-02T18:35:07.083Z,736
2016-06-02T18:35:17.083Z,736
2016-06-02T18:35:27.067Z,736
2016-06-02T18:35:37.070Z,732
2016-06-02T18:35:47.054Z,728
2016-06-02T18:35:56.898Z,728
2016-06-02T18:36:07.054Z,728
2016-06-02T18:36:16.929Z,724
2016-06-02T18:36:27.039Z,724
2016-06-02T18:36:37.073Z,720
2016-06-02T18:36:47.026Z,720
2016-06-02T18:36:57.026Z,720
2016-06-02T18:37:07.026Z,712
2016-06-02T18:37:17.026Z,712
2016-06-02T18:37:27.011Z,712
2016-06-02T18:37:36.856Z,708
2016-06-02T18:37:46.997Z,708
2016-06-02T18:37:56.997Z,708
2016-06-02T18:38:06.997Z,704
2016-06-02T18:38:16.981Z,700
2016-06-02T18:38:26.997Z,700
2016-06-02T18:38:36.985Z,700
2016-06-02T18:38:46.985Z,696
2016-06-02T18:38:56.970Z,692
2016-06-02T18:39:06.985Z,692
2016-06-02T18:39:16.985Z,692
2016-06-02T18:39:26.954Z,692
2016-06-02T18:39:36.721Z,688
2016-06-02T18:39:47.408Z,684
2016-06-02T18:39:58.049Z,688
2016-06-02T18:40:07.549Z,684
2016-06-02T18:40:17.377Z,684
2016-06-02T18:40:27.564Z,680
2016-06-02T18:40:37.896Z,680
2016-06-02T18:40:47.177Z,680
2016-06-02T18:40:57.599Z,676
2016-06-02T18:41:06.755Z,676
2016-06-02T18:41:16.911Z,676
2016-06-02T18:41:26.896Z,672
2016-06-02T18:41:36.602Z,668
2016-06-02T18:41:46.914Z,668
2016-06-02T18:41:56.899Z,664
2016-06-02T18:42:06.742Z,664
2016-06-02T18:42:16.899Z,664
2016-06-02T18:42:26.883Z,656
2016-06-02T18:42:36.870Z,656
2016-06-02T18:42:46.870Z,656
2016-06-02T18:42:56.870Z,656
2016-06-02T18:43:06.855Z,652
2016-06-02T18:43:16.855Z,648
2016-06-02T18:43:26.839Z,648
2016-06-02T18:43:36.842Z,648
2016-06-02T18:43:46.842Z,644
2016-06-02T18:43:56.826Z,644
2016-06-02T18:44:06.826Z,640
2016-06-02T18:44:16.842Z,636
2016-06-02T18:44:26.811Z,636
2016-06-02T18:44:36.798Z,636
2016-06-02T18:44:46.814Z,636
2016-06-02T18:44:56.798Z,628
2016-06-02T18:45:06.658Z,628
2016-06-02T18:45:16.798Z,624
2016-06-02T18:45:26.783Z,624
2016-06-02T18:45:36.785Z,624
2016-06-02T18:45:46.644Z,620
2016-06-02T18:45:56.785Z,616
2016-06-02T18:46:06.785Z,616
2016-06-02T18:46:16.769Z,612
2016-06-02T18:46:26.769Z,612
2016-06-02T18:46:36.772Z,608
2016-06-02T18:46:46.756Z,608
2016-06-02T18:46:56.741Z,608
2016-06-02T18:47:06.772Z,604
2016-06-02T18:47:16.741Z,604
2016-06-02T18:47:26.725Z,600
2016-06-02T18:47:36.744Z,596
2016-06-02T18:47:46.728Z,596
2016-06-02T18:47:56.712Z,596
2016-06-02T18:48:06.572Z,592
2016-06-02T18:48:16.712Z,592
2016-06-02T18:48:26.697Z,588
2016-06-02T18:48:36.699Z,588
2016-06-02T18:48:46.699Z,588
2016-06-02T18:48:56.714Z,588
2016-06-02T18:49:06.683Z,584
2016-06-02T18:49:16.683Z,580
2016-06-02T18:49:26.683Z,580
2016-06-02T18:49:36.671Z,580
2016-06-02T18:49:46.671Z,580
2016-06-02T18:49:56.686Z,576
2016-06-02T18:50:06.655Z,576
2016-06-02T18:50:16.671Z,576
2016-06-02T18:50:26.655Z,572
2016-06-02T18:50:36.658Z,568
2016-06-02T18:50:46.642Z,568
2016-06-02T18:50:56.642Z,568
2016-06-02T18:51:06.627Z,568
2016-06-02T18:51:16.627Z,564
2016-06-02T18:51:26.627Z,564
2016-06-02T18:51:36.613Z,560
2016-06-02T18:51:46.613Z,556
2016-06-02T18:51:56.457Z,560
2016-06-02T18:52:06.613Z,556
2016-06-02T18:52:16.597Z,556
2016-06-02T18:52:26.597Z,552
2016-06-02T18:52:36.584Z,556
2016-06-02T18:52:46.599Z,552
2016-06-02T18:52:56.584Z,552
2016-06-02T18:53:06.568Z,548
2016-06-02T18:53:16.599Z,544
2016-06-02T18:53:26.568Z,544
2016-06-02T18:53:36.572Z,544
2016-06-02T18:53:46.557Z,540
2016-06-02T18:53:56.541Z,544
2016-06-02T18:54:06.541Z,540
2016-06-02T18:54:16.541Z,536
2016-06-02T18:54:26.541Z,536
2016-06-02T18:54:36.559Z,532
2016-06-02T18:54:47.262Z,532
2016-06-02T18:54:57.043Z,528
2016-06-02T18:55:08.371Z,532
2016-06-02T18:55:17.105Z,528
2016-06-02T18:55:27.699Z,524
2016-06-02T18:55:36.624Z,524
2016-06-02T18:55:46.483Z,524
2016-06-02T18:55:57.343Z,524
2016-06-02T18:56:06.218Z,520
2016-06-02T18:56:16.499Z,516
2016-06-02T18:56:26.483Z,516
2016-06-02T18:56:36.518Z,516
2016-06-02T18:56:46.330Z,512
2016-06-02T18:56:56.486Z,512
2016-06-02T18:57:06.471Z,508
2016-06-02T18:57:16.471Z,508
2016-06-02T18:57:26.455Z,508
2016-06-02T18:57:36.457Z,508
2016-06-02T18:57:46.442Z,504
2016-06-02T18:57:56.457Z,500
2016-06-02T18:58:06.426Z,500
2016-06-02T18:58:16.426Z,500
2016-06-02T18:58:26.457Z,496
2016-06-02T18:58:36.429Z,492
2016-06-02T18:58:46.413Z,496
2016-06-02T18:58:56.413Z,492
2016-06-02T18:59:06.413Z,492
2016-06-02T18:59:16.398Z,488
2016-06-02T18:59:26.398Z,484
2016-06-02T18:59:36.244Z,484
2016-06-02T18:59:46.385Z,480
2016-06-02T18:59:56.385Z,480
2016-06-02T19:00:06.385Z,480
2016-06-02T19:00:16.369Z,476
2016-06-02T19:00:26.369Z,476
2016-06-02T19:00:36.357Z,472
2016-06-02T19:00:46.357Z,476
2016-06-02T19:00:56.201Z,472
2016-06-02T19:01:06.341Z,472
2016-06-02T19:01:16.357Z,468
2016-06-02T19:01:26.341Z,468
2016-06-02T19:01:36.343Z,464
2016-06-02T19:01:46.343Z,464
2016-06-02T19:01:56.328Z,460
2016-06-02T19:02:06.312Z,460
2016-06-02T19:02:16.328Z,456
2016-06-02T19:02:26.312Z,456
2016-06-02T19:02:36.299Z,456
2016-06-02T19:02:46.315Z,452
2016-06-02T19:02:56.299Z,448
2016-06-02T19:03:06.299Z,448
2016-06-02T19:03:16.299Z,444
2016-06-02T19:03:26.284Z,444
2016-06-02T19:03:36.286Z,440
2016-06-02T19:03:46.129Z,444
2016-06-02T19:03:56.270Z,440
2016-06-02T19:04:06.270Z,436
2016-06-02T19:04:16.098Z,436
2016-06-02T19:04:25.958Z,432
2016-06-02T19:04:36.289Z,432
2016-06-02T19:04:46.257Z,428
2016-06-02T19:04:56.242Z,432
2016-06-02T19:05:06.257Z,428
2016-06-02T19:05:16.242Z,428
2016-06-02T19:05:26.226Z,424
2016-06-02T19:05:36.260Z,424
2016-06-02T19:05:46.214Z,420
2016-06-02T19:05:56.214Z,420
2016-06-02T19:06:06.214Z,416
2016-06-02T19:06:16.198Z,416
2016-06-02T19:06:26.198Z,412
2016-06-02T19:06:36.231Z,412
2016-06-02T19:06:46.247Z,408
2016-06-02T19:06:56.200Z,408
2016-06-02T19:07:06.200Z,404
2016-06-02T19:07:16.184Z,404
2016-06-02T19:07:26.184Z,400
2016-06-02T19:07:36.173Z,400
2016-06-02T19:07:46.173Z,400
2016-06-02T19:07:56.173Z,396
2016-06-02T19:08:06.157Z,396
2016-06-02T19:08:16.157Z,392
2016-06-02T19:08:26.173Z,392
2016-06-02T19:08:36.143Z,392
2016-06-02T19:08:45.987Z,392
2016-06-02T19:08:56.143Z,388
2016-06-02T19:09:06.128Z,388
2016-06-02T19:09:16.128Z,384
2016-06-02T19:09:26.128Z,384
2016-06-02T19:09:35.834Z,380
2016-06-02T19:09:46.506Z,380
2016-06-02T19:09:56.506Z,376
2016-06-02T19:10:07.240Z,376
2016-06-02T19:10:16.521Z,372
2016-06-02T19:10:26.631Z,372
2016-06-02T19:10:37.195Z,368
2016-06-02T19:10:45.836Z,368
2016-06-02T19:10:56.414Z,368
2016-06-02T19:11:05.945Z,364
2016-06-02T19:11:16.086Z,364
2016-06-02T19:11:26.055Z,360
2016-06-02T19:11:36.073Z,356
2016-06-02T19:11:46.073Z,356
2016-06-02T19:11:56.058Z,356
2016-06-02T19:12:06.058Z,356
2016-06-02T19:12:16.042Z,352
2016-06-02T19:12:26.042Z,352
2016-06-02T19:12:36.045Z,348
2016-06-02T19:12:46.029Z,348
2016-06-02T19:12:56.029Z,340
2016-06-02T19:13:06.029Z,344
2016-06-02T19:13:16.014Z,340
2016-06-02T19:13:26.014Z,340
2016-06-02T19:13:36.032Z,336
2016-06-02T19:13:46.001Z,336
2016-06-02T19:13:56.017Z,332
2016-06-02T19:14:06.017Z,336
2016-06-02T19:14:15.845Z,332
2016-06-02T19:14:25.986Z,332
2016-06-02T19:14:35.988Z,328
2016-06-02T19:14:45.972Z,328
2016-06-02T19:14:55.972Z,324
2016-06-02T19:15:05.972Z,296
2016-06-02T19:15:15.956Z,320
2016-06-02T19:15:25.956Z,320
2016-06-02T19:15:35.959Z,316
2016-06-02T19:15:45.959Z,316
2016-06-02T19:15:55.975Z,312
2016-06-02T19:16:05.928Z,312
2016-06-02T19:16:15.772Z,308
2016-06-02T19:16:25.944Z,308
2016-06-02T19:16:35.931Z,308
2016-06-02T19:16:45.947Z,308
2016-06-02T19:16:55.947Z,304
2016-06-02T19:17:05.915Z,304
2016-06-02T19:17:15.900Z,296
2016-06-02T19:17:25.900Z,296
2016-06-02T19:17:35.902Z,296
2016-06-02T19:17:45.917Z,292
2016-06-02T19:17:55.886Z,292
2016-06-02T19:18:05.917Z,292
2016-06-02T19:18:15.886Z,288
2016-06-02T19:18:25.855Z,288
2016-06-02T19:18:35.874Z,284
2016-06-02T19:18:45.905Z,284
2016-06-02T19:18:55.702Z,284
2016-06-02T19:19:05.905Z,280
2016-06-02T19:19:15.889Z,280
2016-06-02T19:19:25.842Z,276
2016-06-02T19:19:35.845Z,276
2016-06-02T19:19:45.845Z,276
2016-06-02T19:19:55.845Z,272
2016-06-02T19:20:05.830Z,272
2016-06-02T19:20:15.830Z,264
2016-06-02T19:20:25.814Z,260
2016-06-02T19:20:35.817Z,256
2016-06-02T19:20:45.661Z,264
2016-06-02T19:20:55.801Z,264
2016-06-02T19:21:05.801Z,260
2016-06-02T19:21:15.801Z,260
2016-06-02T19:21:25.630Z,256
2016-06-02T19:21:35.788Z,256
2016-06-02T19:21:45.788Z,252
2016-06-02T19:21:55.772Z,252
2016-06-02T19:22:05.788Z,252
2016-06-02T19:22:15.757Z,248
2016-06-02T19:22:25.757Z,248
2016-06-02T19:22:35.760Z,244
2016-06-02T19:22:45.760Z,244
2016-06-02T19:22:55.744Z,240
2016-06-02T19:23:05.760Z,240
2016-06-02T19:23:15.728Z,236
2016-06-02T19:23:25.728Z,236
2016-06-02T19:23:35.746Z,232
2016-06-02T19:23:45.730Z,232
2016-06-02T19:23:55.730Z,232
2016-06-02T19:24:05.730Z,228
2016-06-02T19:24:15.558Z,228
2016-06-02T19:24:25.699Z,224
2016-06-02T19:24:35.780Z,224
2016-06-02T19:24:45.936Z,220
2016-06-02T19:24:55.749Z,220
2016-06-02T19:25:07.358Z,216
2016-06-02T19:25:15.546Z,220
2016-06-02T19:25:27.905Z,216
2016-06-02T19:25:36.268Z,216
2016-06-02T19:25:45.799Z,212
2016-06-02T19:25:55.533Z,212
2016-06-02T19:26:06.846Z,212
2016-06-02T19:26:15.674Z,208
2016-06-02T19:26:25.658Z,208
2016-06-02T19:26:35.645Z,204
2016-06-02T19:26:45.645Z,204
2016-06-02T19:26:55.629Z,200
2016-06-02T19:27:05.629Z,200
2016-06-02T19:27:15.629Z,196
2016-06-02T19:27:25.629Z,196
2016-06-02T19:27:35.632Z,196
2016-06-02T19:27:45.616Z,196
2016-06-02T19:27:55.601Z,192
2016-06-02T19:28:05.616Z,192
2016-06-02T19:28:15.601Z,188
2016-06-02T19:28:25.585Z,188
2016-06-02T19:28:35.604Z,184
2016-06-02T19:28:45.588Z,188
2016-06-02T19:28:55.572Z,184
2016-06-02T19:29:05.588Z,184
2016-06-02T19:29:15.588Z,180
2016-06-02T19:29:25.557Z,180
2016-06-02T19:29:35.559Z,176
2016-06-02T19:29:45.403Z,176
2016-06-02T19:29:55.574Z,176
2016-06-02T19:30:05.543Z,176
2016-06-02T19:30:15.543Z,172
2016-06-02T19:30:25.543Z,172
2016-06-02T19:30:35.390Z,168
2016-06-02T19:30:45.515Z,168
2016-06-02T19:30:55.515Z,164
2016-06-02T19:31:05.515Z,168
2016-06-02T19:31:15.531Z,164
2016-06-02T19:31:25.499Z,164
2016-06-02T19:31:35.502Z,160
2016-06-02T19:31:45.502Z,156
2016-06-02T19:31:55.502Z,156
2016-06-02T19:32:05.502Z,156
2016-06-02T19:32:15.518Z,156
2016-06-02T19:32:25.471Z,152
2016-06-02T19:32:35.473Z,152
2016-06-02T19:32:45.473Z,148
2016-06-02T19:32:55.473Z,148
2016-06-02T19:33:05.473Z,148
2016-06-02T19:33:15.457Z,148
2016-06-02T19:33:25.457Z,144
2016-06-02T19:33:35.460Z,144
2016-06-02T19:33:45.445Z,140
2016-06-02T19:33:55.429Z,144
2016-06-02T19:34:05.445Z,140
2016-06-02T19:34:15.429Z,140
2016-06-02T19:34:25.429Z,136
2016-06-02T19:34:35.416Z,136
2016-06-02T19:34:45.259Z,136
2016-06-02T19:34:55.416Z,132
2016-06-02T19:35:05.416Z,132
2016-06-02T19:35:15.400Z,128
2016-06-02T19:35:25.400Z,132
2016-06-02T19:35:35.404Z,128
2016-06-02T19:35:45.388Z,128
2016-06-02T19:35:55.388Z,124
2016-06-02T19:36:05.404Z,124
2016-06-02T19:36:15.373Z,124
2016-06-02T19:36:25.357Z,120
2016-06-02T19:36:35.359Z,120
2016-06-02T19:36:45.359Z,120
2016-06-02T19:36:55.359Z,120
2016-06-02T19:37:05.187Z,116
2016-06-02T19:37:15.328Z,120
2016-06-02T19:37:25.359Z,116
2016-06-02T19:37:35.331Z,112
2016-06-02T19:37:45.331Z,112
2016-06-02T19:37:55.331Z,112
2016-06-02T19:38:05.175Z,112
2016-06-02T19:38:15.315Z,108
2016-06-02T19:38:25.315Z,108
2016-06-02T19:38:35.162Z,108
2016-06-02T19:38:45.318Z,104
2016-06-02T19:38:55.303Z,104
2016-06-02T19:39:05.303Z,104
2016-06-02T19:39:15.287Z,100
2016-06-02T19:39:25.287Z,100
2016-06-02T19:39:35.758Z,100
2016-06-02T19:39:45.289Z,100
2016-06-02T19:39:55.617Z,96
2016-06-02T19:40:06.117Z,96
2016-06-02T19:40:15.789Z,96
2016-06-02T19:40:24.961Z,92
2016-06-02T19:40:36.386Z,96
2016-06-02T19:40:45.386Z,92
2016-06-02T19:40:55.714Z,88
2016-06-02T19:41:06.026Z,92
2016-06-02T19:41:15.229Z,88
2016-06-02T19:41:25.245Z,88
2016-06-02T19:41:35.232Z,88
2016-06-02T19:41:45.248Z,84
2016-06-02T19:41:55.201Z,84
2016-06-02T19:42:05.217Z,84
2016-06-02T19:42:15.201Z,80
2016-06-02T19:42:25.201Z,84
2016-06-02T19:42:35.203Z,80
2016-06-02T19:42:45.203Z,80
2016-06-02T19:42:55.188Z,80
2016-06-02T19:43:05.188Z,76
2016-06-02T19:43:15.172Z,76